Pagrindinis puslapis
METAR-TAF:

METAR-TAF

Oro uostai :

Igvasu, Argentina

platuma: 25-44S, ilguma: 054-28W, Aukštis: 270 m

Dabartinis oras

Ataskaita buvo paskelbta 33 minutes, ne 09:00 UTC
Ramus vėjas
Temperatūra 19°C
Drėgmė 100%
Slėgis 1012 hPa
Matomumas: 5000 m
Išsisklaidę debesys ne aukštis 400 ft
Su prošvaistėmis ne aukštis 5000 ft
Apsiniaukę ne aukštis 10000 ft
rūkana

METAR: SARI 090900Z 00000KT 5000 BR SCT004 BKN050 OVC100 19/19 Q1012

Laikas: 06:33 (09:33 UTC)

Prognozė

Ataskaita buvo paskelbta 4 valandos ir 33 minutes, ne 05:00 UTC
Prognozė galioja nuo 09 metu 06 UTC su 10 metu 06 UTC
Vėjas 3 kt nuo kintamojo kryptimis
Matomumas: 8000 m
Išsisklaidę debesys ne aukštis 1000 ft
Su prošvaistėmis ne aukštis 4000 ft
dulksna
Tapsmas
nuo 09 metu 13 UTC su 09 metu 15 UTC
Matomumas 10 km arba daugiau
nėra debesų žemiau 1500 m ir nėra kamuolinių lietaus debesų

TAF: SARI 090500Z 0906/1006 VRB03KT 8000 -DZ SCT010 BKN040 TX30/0918Z TN18/0909Z BECMG 0913/0915 CAVOK

Orai ataskaitas ir orų prognozės (METAR, TAF).

turimą stotys yra geltonos ir raudonos taškus žemėlapyje.

Perkelti pele per norėdami pamatyti stoties vardą.

Tada spustelėkite, norėdami matyti oro stebėjimo ir prognozės.

Norėdami pakeisti žemėlapį: spustelėkite ant žalios mygtukų su juodo kryžiaus žemyn,; žalią mygtuką su brūkšneliu, jei norite nutolinti; arba žalių rodyklių gretimoms žemėlapius.


METAR-TAF: